Segeza, Russia
Current Conditions -  °F | °C
As of 9:00 AM on Friday 31 Oct 2014 (Local Time) from ULPB Reporting Station
Few Clouds Few Clouds  
Wind Chill: 32°   Ceiling: Unl
Heat Index: 37°   Visibility: 6mi
Dew Point: 32°   Wind: 7mph
Humidity: 81%   Direction: 290°WNW
Pressure: 29.91"   Gusts: NA
Location:  63.75°N, 34.35°E
Report Text: ULPB 310600Z 29003MPS 200V340 9999 FEW026 03/M00 Q1013 NOSIGRMK QFE756/1008 SC060
Loading
Personal Weather Stations






























Interactive Weather Map
Tropical Storm Tracking
New forecast layout! Learn more

10-Day Weather Forecast

Advertisements
Track Severe Weather on mobile